createdAt,value
2022-07-26T00:00:10.484Z,15.00
2022-07-26T00:02:37.137Z,13.23
2022-07-26T00:05:04.442Z,17.00
2022-07-26T00:07:36.051Z,14.43
2022-07-26T00:10:05.451Z,17.85
2022-07-26T00:12:32.449Z,13.13
2022-07-26T00:14:59.561Z,16.25
2022-07-26T00:17:26.199Z,13.43
2022-07-26T00:19:52.803Z,13.10
2022-07-26T00:22:34.560Z,13.23
2022-07-26T00:25:04.005Z,13.25
2022-07-26T00:27:30.748Z,14.00
2022-07-26T00:29:57.402Z,18.38
2022-07-26T00:32:24.111Z,13.63
2022-07-26T00:34:52.379Z,13.82
2022-07-26T00:37:20.650Z,14.40
2022-07-26T00:39:47.483Z,14.50
2022-07-26T00:42:14.171Z,13.60
2022-07-26T00:44:42.866Z,14.18
2022-07-26T00:47:10.157Z,13.00
2022-07-26T00:49:37.265Z,17.00
2022-07-26T00:52:06.031Z,13.63
2022-07-26T00:54:32.978Z,12.73
2022-07-26T00:56:59.754Z,12.93
2022-07-26T00:59:26.387Z,13.02
2022-07-26T01:01:53.308Z,13.38
2022-07-26T01:04:20.029Z,12.82
2022-07-26T01:06:48.476Z,18.88
2022-07-26T01:09:16.325Z,14.57
2022-07-26T01:11:43.521Z,14.35
2022-07-26T01:14:10.591Z,14.73
2022-07-26T01:16:37.807Z,13.90
2022-07-26T01:19:04.556Z,13.15
2022-07-26T01:21:33.003Z,13.35
2022-07-26T01:23:59.776Z,15.70
2022-07-26T01:26:26.382Z,15.30
2022-07-26T01:28:53.122Z,13.52
2022-07-26T01:31:19.795Z,13.25
2022-07-26T01:33:46.477Z,13.88
2022-07-26T01:36:13.094Z,14.15
2022-07-26T01:38:40.679Z,14.82
2022-07-26T01:41:07.480Z,13.85
2022-07-26T01:43:34.218Z,14.15
2022-07-26T01:46:00.887Z,13.55
2022-07-26T01:48:27.662Z,16.27
2022-07-26T01:50:54.408Z,13.20
2022-07-26T01:53:21.143Z,14.07
2022-07-26T01:55:47.774Z,14.40
2022-07-26T01:58:14.537Z,15.43
2022-07-26T02:00:41.139Z,17.10
2022-07-26T02:03:07.882Z,16.55
2022-07-26T02:05:34.708Z,14.75
2022-07-26T02:08:01.371Z,15.88
2022-07-26T02:10:46.863Z,14.15
2022-07-26T02:13:14.582Z,13.60
2022-07-26T02:15:41.440Z,13.50
2022-07-26T02:18:08.621Z,13.13
2022-07-26T02:20:35.255Z,13.50
2022-07-26T02:23:02.298Z,14.75
2022-07-26T02:25:29.113Z,14.43
2022-07-26T02:27:55.783Z,16.75
2022-07-26T02:30:22.579Z,14.10
2022-07-26T02:32:49.287Z,13.98
2022-07-26T02:35:15.887Z,14.32
2022-07-26T02:37:43.880Z,14.57
2022-07-26T02:40:16.913Z,14.80
2022-07-26T02:42:45.576Z,14.90
2022-07-26T02:45:12.147Z,13.85
2022-07-26T02:47:46.770Z,13.45
2022-07-26T02:50:16.752Z,16.23
2022-07-26T02:52:43.325Z,15.82
2022-07-26T02:55:10.090Z,14.27
2022-07-26T03:00:15.623Z,14.30
2022-07-26T03:02:42.581Z,13.77
2022-07-26T03:05:09.706Z,14.05
2022-07-26T03:07:36.634Z,14.20
2022-07-26T03:10:04.530Z,14.50
2022-07-26T03:12:31.243Z,13.77
2022-07-26T03:14:57.854Z,13.70
2022-07-26T03:17:24.501Z,13.98
2022-07-26T03:19:51.191Z,16.88
2022-07-26T03:22:17.999Z,15.57
2022-07-26T03:24:44.574Z,14.60
2022-07-26T03:27:11.172Z,13.60
2022-07-26T03:29:37.829Z,14.02
2022-07-26T03:32:04.712Z,14.20
2022-07-26T03:34:31.388Z,19.70
2022-07-26T03:36:58.008Z,18.33
2022-07-26T03:39:25.562Z,17.77
2022-07-26T03:41:52.210Z,15.10
2022-07-26T03:44:19.029Z,14.73
2022-07-26T03:46:45.698Z,13.88
2022-07-26T03:49:16.664Z,14.70
2022-07-26T03:51:43.836Z,14.80
2022-07-26T03:54:10.900Z,17.15
2022-07-26T03:56:38.169Z,17.13
2022-07-26T03:59:07.303Z,16.98
2022-07-26T04:01:41.765Z,14.95
2022-07-26T04:04:13.087Z,18.00
2022-07-26T04:06:40.408Z,24.27
2022-07-26T04:09:08.107Z,17.25
2022-07-26T04:11:35.458Z,18.63
2022-07-26T04:14:02.495Z,25.48
2022-07-26T04:16:29.374Z,23.25
2022-07-26T04:18:56.375Z,21.85
2022-07-26T04:21:23.713Z,18.60
2022-07-26T04:26:20.467Z,18.08
2022-07-26T04:28:47.392Z,20.17
2022-07-26T04:31:14.139Z,23.75
2022-07-26T04:33:40.827Z,20.20
2022-07-26T04:36:07.637Z,17.75
2022-07-26T04:38:34.212Z,20.42
2022-07-26T04:41:00.910Z,18.40
2022-07-26T04:43:27.535Z,20.83
2022-07-26T04:45:54.491Z,19.73
2022-07-26T04:48:21.093Z,24.42
2022-07-26T04:50:47.680Z,21.25
2022-07-26T04:53:14.776Z,20.67
2022-07-26T04:55:42.220Z,17.65
2022-07-26T04:58:09.440Z,22.80
2022-07-26T05:00:56.526Z,22.52
2022-07-26T05:03:25.270Z,24.02
2022-07-26T05:05:52.571Z,23.52
2022-07-26T05:08:19.235Z,26.90
2022-07-26T05:10:45.916Z,24.08
2022-07-26T05:13:12.585Z,22.20
2022-07-26T05:15:39.224Z,22.20
2022-07-26T05:18:13.468Z,23.40
2022-07-26T05:20:40.538Z,23.65
2022-07-26T05:23:07.991Z,18.73
2022-07-26T05:25:34.924Z,23.05
2022-07-26T05:28:01.605Z,20.65
2022-07-26T05:30:28.458Z,20.23
2022-07-26T05:32:55.154Z,17.70
2022-07-26T05:35:21.966Z,21.65
2022-07-26T05:37:48.698Z,19.45
2022-07-26T05:40:15.492Z,18.40
2022-07-26T05:42:42.218Z,18.35
2022-07-26T05:45:09.439Z,19.02
2022-07-26T05:47:36.089Z,16.95
2022-07-26T05:50:03.618Z,23.08
2022-07-26T05:52:30.256Z,16.80
2022-07-26T05:54:56.850Z,20.33
2022-07-26T05:57:23.486Z,18.25
2022-07-26T05:59:50.415Z,19.05
2022-07-26T06:02:17.077Z,18.77
2022-07-26T06:04:44.069Z,17.85
2022-07-26T06:07:14.437Z,18.38
2022-07-26T06:09:42.748Z,18.17
2022-07-26T06:12:09.572Z,15.65
2022-07-26T06:14:39.703Z,15.48
2022-07-26T06:17:06.392Z,15.57
2022-07-26T06:19:33.302Z,20.67
2022-07-26T06:22:00.092Z,14.82
2022-07-26T06:24:27.160Z,17.88
2022-07-26T06:26:58.150Z,15.48
2022-07-26T06:29:32.717Z,13.75
2022-07-26T06:32:00.105Z,16.95
2022-07-26T06:34:26.974Z,17.17
2022-07-26T06:36:53.612Z,13.13
2022-07-26T06:39:20.464Z,15.20
2022-07-26T06:41:47.146Z,13.38
2022-07-26T06:44:13.749Z,14.02
2022-07-26T06:46:40.375Z,14.70
2022-07-26T06:49:07.292Z,16.33
2022-07-26T06:54:00.854Z,17.17
2022-07-26T06:56:27.768Z,13.70
2022-07-26T06:58:55.356Z,16.45
2022-07-26T07:01:58.776Z,13.00
2022-07-26T07:04:09.583Z,15.32
2022-07-26T07:06:36.485Z,56.10
2022-07-26T07:09:03.242Z,14.00
2022-07-26T07:11:29.845Z,13.20
2022-07-26T07:13:56.463Z,13.52
2022-07-26T07:16:23.159Z,14.18
2022-07-26T07:18:51.350Z,16.02
2022-07-26T07:21:17.961Z,13.30
2022-07-26T07:23:44.528Z,13.18
2022-07-26T07:26:11.102Z,12.82
2022-07-26T07:28:40.562Z,13.73
2022-07-26T07:31:07.150Z,13.48
2022-07-26T07:33:43.902Z,14.32
2022-07-26T07:36:19.827Z,19.20
2022-07-26T07:38:46.615Z,12.07
2022-07-26T07:41:13.336Z,14.55
2022-07-26T07:43:40.008Z,15.48
2022-07-26T07:46:06.888Z,13.15
2022-07-26T07:48:33.535Z,12.02
2022-07-26T07:51:00.113Z,12.25
2022-07-26T07:53:26.855Z,13.98
2022-07-26T07:55:55.347Z,12.50
2022-07-26T07:58:22.173Z,11.77
2022-07-26T08:00:48.875Z,11.40
2022-07-26T08:03:18.096Z,12.93
2022-07-26T08:05:46.965Z,13.10
2022-07-26T08:08:17.043Z,12.32
2022-07-26T08:13:21.552Z,11.87
2022-07-26T08:15:52.827Z,14.25
2022-07-26T08:18:22.533Z,12.32
2022-07-26T08:20:50.678Z,12.90
2022-07-26T08:23:17.640Z,11.25
2022-07-26T08:28:46.312Z,12.43
2022-07-26T08:31:11.396Z,14.02
2022-07-26T08:33:39.346Z,12.95
2022-07-26T08:36:08.681Z,12.25
2022-07-26T08:38:35.334Z,12.55
2022-07-26T08:41:01.908Z,12.45
2022-07-26T08:43:29.498Z,11.55
2022-07-26T08:46:03.173Z,11.38
2022-07-26T08:48:30.314Z,11.98
2022-07-26T08:50:57.209Z,12.18
2022-07-26T08:58:36.737Z,11.30
2022-07-26T09:01:09.067Z,11.15
2022-07-26T09:03:38.815Z,11.30
2022-07-26T09:06:18.812Z,13.98
2022-07-26T09:08:48.504Z,11.73
2022-07-26T09:11:24.213Z,11.82
2022-07-26T09:13:51.832Z,10.98
2022-07-26T09:16:19.172Z,11.07
2022-07-26T09:18:45.977Z,11.48
2022-07-26T09:21:28.823Z,11.68
2022-07-26T09:23:55.784Z,10.32
2022-07-26T09:26:25.582Z,10.63
2022-07-26T09:29:09.508Z,10.52
2022-07-26T09:31:37.969Z,10.30
2022-07-26T09:34:06.544Z,11.40
2022-07-26T09:36:33.583Z,9.13
2022-07-26T09:39:03.149Z,10.88
2022-07-26T09:41:31.057Z,10.15
2022-07-26T09:44:00.625Z,9.18
2022-07-26T09:46:31.099Z,10.82
2022-07-26T09:49:10.599Z,8.98
2022-07-26T09:51:43.227Z,10.20
2022-07-26T09:54:12.575Z,9.38
2022-07-26T09:56:53.217Z,9.63
2022-07-26T09:59:22.093Z,8.95
2022-07-26T10:01:50.750Z,9.32
2022-07-26T10:04:18.284Z,9.32
2022-07-26T10:06:45.027Z,9.75
2022-07-26T10:09:12.742Z,8.85
2022-07-26T10:11:55.554Z,8.43
2022-07-26T10:14:34.248Z,9.52
2022-07-26T10:17:21.588Z,9.40
2022-07-26T10:20:01.813Z,9.32
2022-07-26T10:22:30.763Z,9.00
2022-07-26T10:25:18.163Z,9.13
2022-07-26T10:27:47.301Z,9.25
2022-07-26T10:30:19.981Z,8.68
2022-07-26T10:33:10.175Z,11.98
2022-07-26T10:35:37.079Z,9.30
2022-07-26T10:38:13.798Z,9.52
2022-07-26T10:41:02.340Z,10.80
2022-07-26T10:43:40.643Z,9.88
2022-07-26T10:46:17.946Z,9.43
2022-07-26T10:49:04.523Z,9.18
2022-07-26T10:51:41.251Z,9.57
2022-07-26T10:54:12.077Z,12.65
2022-07-26T10:56:39.768Z,8.90
2022-07-26T10:59:07.327Z,8.73
2022-07-26T11:01:40.931Z,8.98
2022-07-26T11:04:18.840Z,8.95
2022-07-26T11:06:45.828Z,8.65
2022-07-26T11:09:13.398Z,10.35
2022-07-26T11:11:47.007Z,8.65
2022-07-26T11:14:17.897Z,9.18
2022-07-26T11:16:50.416Z,12.38
2022-07-26T11:19:22.418Z,8.57
2022-07-26T11:21:59.036Z,9.88
2022-07-26T11:24:26.956Z,11.55
2022-07-26T11:26:54.607Z,9.50
2022-07-26T11:29:39.102Z,8.98
2022-07-26T11:34:45.502Z,9.25
2022-07-26T11:37:12.727Z,8.73
2022-07-26T11:39:39.789Z,8.65
2022-07-26T11:42:13.153Z,8.85
2022-07-26T11:44:44.582Z,8.43
2022-07-26T11:47:25.545Z,8.77
2022-07-26T11:52:40.069Z,8.55
2022-07-26T11:55:07.507Z,9.23
2022-07-26T11:57:34.170Z,12.57
2022-07-26T12:00:01.584Z,8.27
2022-07-26T12:02:30.141Z,8.27
2022-07-26T12:05:33.447Z,8.30
2022-07-26T12:08:07.150Z,10.68
2022-07-26T12:10:34.144Z,8.77
2022-07-26T12:13:14.837Z,8.85
2022-07-26T12:15:49.854Z,9.27
2022-07-26T12:18:29.804Z,9.27
2022-07-26T12:21:08.437Z,8.38
2022-07-26T12:23:48.581Z,7.85
2022-07-26T12:26:22.519Z,13.70
2022-07-26T12:28:49.158Z,8.57
2022-07-26T12:31:30.546Z,8.88
2022-07-26T12:33:58.485Z,11.75
2022-07-26T12:36:27.050Z,8.10
2022-07-26T12:38:56.118Z,9.27
2022-07-26T12:41:36.415Z,8.15
2022-07-26T12:44:05.037Z,7.80
2022-07-26T12:46:33.770Z,8.18
2022-07-26T12:49:01.062Z,8.85
2022-07-26T12:51:28.109Z,8.30
2022-07-26T12:56:21.486Z,7.75
2022-07-26T12:58:48.162Z,13.35
2022-07-26T13:01:15.172Z,7.80
2022-07-26T13:03:41.843Z,8.00
2022-07-26T13:06:08.535Z,7.93
2022-07-26T13:11:01.751Z,8.43
2022-07-26T13:13:28.430Z,7.45
2022-07-26T13:20:48.059Z,8.05
2022-07-26T13:23:21.415Z,7.78
2022-07-26T13:25:49.021Z,8.15
2022-07-26T13:28:17.291Z,8.48
2022-07-26T13:30:45.113Z,8.25
2022-07-26T13:33:12.474Z,9.00
2022-07-26T13:35:41.087Z,10.43
2022-07-26T13:38:09.023Z,8.45
2022-07-26T13:40:36.159Z,8.93
2022-07-26T13:43:03.458Z,7.95
2022-07-26T13:45:30.121Z,7.97
2022-07-26T13:48:00.059Z,7.63
2022-07-26T13:50:29.626Z,7.97
2022-07-26T13:52:56.823Z,7.30
2022-07-26T13:55:24.342Z,8.70
2022-07-26T13:57:56.854Z,7.95
2022-07-26T14:00:27.323Z,7.95
2022-07-26T14:02:55.738Z,8.07
2022-07-26T14:05:23.034Z,8.05
2022-07-26T14:07:50.607Z,7.75
2022-07-26T14:10:17.589Z,7.90
2022-07-26T14:12:44.176Z,7.88
2022-07-26T14:15:15.451Z,7.72
2022-07-26T14:17:47.175Z,10.20
2022-07-26T14:20:14.958Z,8.40
2022-07-26T14:22:41.586Z,8.10
2022-07-26T14:25:08.605Z,8.32
2022-07-26T14:27:35.297Z,8.27
2022-07-26T14:30:02.143Z,8.15
2022-07-26T14:34:55.325Z,7.88
2022-07-26T14:37:43.684Z,7.40
2022-07-26T14:40:09.006Z,7.95
2022-07-26T14:42:35.603Z,8.38
2022-07-26T14:45:02.194Z,8.63
2022-07-26T14:47:28.821Z,11.88
2022-07-26T14:49:55.504Z,8.25
2022-07-26T14:52:22.379Z,8.20
2022-07-26T14:54:48.980Z,8.40
2022-07-26T14:57:15.633Z,8.45
2022-07-26T14:59:42.278Z,8.30
2022-07-26T15:02:10.632Z,10.70
2022-07-26T15:04:37.286Z,11.25
2022-07-26T15:07:03.914Z,14.63
2022-07-26T15:09:30.675Z,8.82
2022-07-26T15:16:50.851Z,8.07
2022-07-26T15:21:53.226Z,8.43
2022-07-26T15:24:19.800Z,8.10
2022-07-26T15:26:49.701Z,7.75
2022-07-26T15:29:16.302Z,7.85
2022-07-26T15:31:43.097Z,8.80
2022-07-26T15:36:37.162Z,7.90
2022-07-26T15:41:43.893Z,20.50
2022-07-26T15:44:12.363Z,8.68
2022-07-26T15:46:39.647Z,8.10
2022-07-26T15:49:07.207Z,9.73
2022-07-26T15:51:34.034Z,8.32
2022-07-26T15:54:02.385Z,8.40
2022-07-26T15:56:29.114Z,9.40
2022-07-26T16:03:48.878Z,8.50
2022-07-26T16:06:15.572Z,9.02
2022-07-26T16:08:58.923Z,9.38
2022-07-26T16:11:30.102Z,9.35
2022-07-26T16:14:01.347Z,9.20
2022-07-26T16:16:32.168Z,9.95
2022-07-26T16:18:59.013Z,9.23
2022-07-26T16:23:52.266Z,9.75
2022-07-26T16:26:18.958Z,13.63
2022-07-26T16:28:45.862Z,9.27
2022-07-26T16:31:12.679Z,10.52
2022-07-26T16:36:13.599Z,10.10
2022-07-26T16:38:40.214Z,10.10
2022-07-26T16:41:06.902Z,9.43
2022-07-26T16:43:34.577Z,10.48
2022-07-26T16:46:01.252Z,9.15
2022-07-26T16:48:28.113Z,9.88
2022-07-26T16:58:16.640Z,9.00
2022-07-26T17:03:09.915Z,7.70
2022-07-26T17:05:36.510Z,8.25
2022-07-26T17:08:03.291Z,8.02
2022-07-26T17:10:29.897Z,7.03
2022-07-26T17:12:56.500Z,8.65
2022-07-26T17:15:23.089Z,10.60
2022-07-26T17:17:49.814Z,8.38
2022-07-26T17:20:16.751Z,9.90
2022-07-26T17:25:10.110Z,7.88
2022-07-26T17:27:36.809Z,11.43
2022-07-26T17:30:07.060Z,8.32
2022-07-26T17:32:34.125Z,7.85
2022-07-26T17:35:01.101Z,9.82
2022-07-26T17:39:57.321Z,9.02
2022-07-26T17:42:24.405Z,8.20
2022-07-26T17:47:29.404Z,7.22
2022-07-26T17:50:19.520Z,8.20
2022-07-26T17:52:49.401Z,8.30
2022-07-26T17:55:16.209Z,7.80
2022-07-26T17:57:42.844Z,7.40
2022-07-26T18:00:10.095Z,7.85
2022-07-26T18:02:37.285Z,7.72
2022-07-26T18:05:04.284Z,8.27
2022-07-26T18:09:57.444Z,9.00
2022-07-26T18:12:24.068Z,8.18
2022-07-26T18:14:50.746Z,8.98
2022-07-26T18:17:17.346Z,10.07
2022-07-26T18:19:43.938Z,8.88
2022-07-26T18:22:10.604Z,10.73
2022-07-26T18:24:37.229Z,8.45
2022-07-26T18:27:04.022Z,10.27
2022-07-26T18:29:30.640Z,8.27
2022-07-26T18:32:02.131Z,10.73
2022-07-26T18:34:28.863Z,33.75
2022-07-26T18:36:55.499Z,27.52
2022-07-26T18:39:22.255Z,32.03
2022-07-26T18:41:48.961Z,9.57
2022-07-26T18:44:15.646Z,10.63
2022-07-26T18:46:42.382Z,11.50
2022-07-26T18:49:09.615Z,11.48
2022-07-26T18:51:42.961Z,11.98
2022-07-26T18:56:36.710Z,11.02
2022-07-26T18:59:04.090Z,11.57
2022-07-26T19:01:30.855Z,11.02
2022-07-26T19:03:57.615Z,10.93
2022-07-26T19:06:24.789Z,10.80
2022-07-26T19:11:17.874Z,15.52
2022-07-26T19:13:44.508Z,11.15
2022-07-26T19:16:11.408Z,11.45
2022-07-26T19:18:38.057Z,10.60
2022-07-26T19:21:04.725Z,10.20
2022-07-26T19:23:31.337Z,10.43
2022-07-26T19:25:57.966Z,10.40
2022-07-26T19:28:24.581Z,10.60
2022-07-26T19:30:51.244Z,11.18
2022-07-26T19:33:18.887Z,12.20
2022-07-26T19:35:45.508Z,11.23
2022-07-26T19:38:12.180Z,11.10
2022-07-26T19:40:38.848Z,11.07
2022-07-26T19:43:05.498Z,11.05
2022-07-26T19:45:32.108Z,10.63
2022-07-26T19:47:58.726Z,13.43
2022-07-26T19:50:25.617Z,10.07
2022-07-26T19:52:52.281Z,10.48
2022-07-26T19:55:18.878Z,11.27
2022-07-26T19:57:45.557Z,10.85
2022-07-26T20:00:12.623Z,11.70
2022-07-26T20:02:41.201Z,11.50
2022-07-26T20:05:10.442Z,12.35
2022-07-26T20:07:37.608Z,11.68
2022-07-26T20:12:33.622Z,10.82
2022-07-26T20:15:00.784Z,12.23
2022-07-26T20:19:54.091Z,13.07
2022-07-26T20:22:20.768Z,12.23
2022-07-26T20:24:47.419Z,12.23
2022-07-26T20:27:14.046Z,11.93
2022-07-26T20:29:40.725Z,13.48
2022-07-26T20:32:07.592Z,13.02
2022-07-26T20:34:35.048Z,15.38
2022-07-26T20:37:01.768Z,12.18
2022-07-26T20:39:29.157Z,12.15
2022-07-26T20:41:57.147Z,14.18
2022-07-26T20:44:28.171Z,14.50
2022-07-26T20:46:55.488Z,12.18
2022-07-26T20:49:22.189Z,13.98
2022-07-26T20:51:48.889Z,12.93
2022-07-26T20:54:15.545Z,12.35
2022-07-26T20:56:42.198Z,12.70
2022-07-26T20:59:09.976Z,15.38
2022-07-26T21:01:36.916Z,13.43
2022-07-26T21:04:03.671Z,14.10
2022-07-26T21:06:30.482Z,13.40
2022-07-26T21:08:57.908Z,13.48
2022-07-26T21:11:24.812Z,15.27
2022-07-26T21:13:51.469Z,13.30
2022-07-26T21:16:20.249Z,14.48
2022-07-26T21:18:52.910Z,13.07
2022-07-26T21:21:20.354Z,14.15
2022-07-26T21:23:47.061Z,13.80
2022-07-26T21:26:13.748Z,14.27
2022-07-26T21:28:40.437Z,17.15
2022-07-26T21:31:07.061Z,13.20
2022-07-26T21:33:33.759Z,15.07
2022-07-26T21:36:00.408Z,14.80
2022-07-26T21:38:29.835Z,12.95
2022-07-26T21:40:56.502Z,13.43
2022-07-26T21:43:23.191Z,13.05
2022-07-26T21:45:49.863Z,12.38
2022-07-26T21:48:17.848Z,12.57
2022-07-26T21:50:44.624Z,13.20
2022-07-26T21:53:11.301Z,12.00
2022-07-26T21:55:37.897Z,15.68
2022-07-26T21:58:04.557Z,12.70
2022-07-26T22:00:31.382Z,12.70
2022-07-26T22:02:58.121Z,12.38
2022-07-26T22:05:39.597Z,13.07
2022-07-26T22:08:08.207Z,12.68
2022-07-26T22:10:35.332Z,12.27
2022-07-26T22:13:11.161Z,12.95
2022-07-26T22:15:37.848Z,18.10
2022-07-26T22:18:04.655Z,12.80
2022-07-26T22:20:32.583Z,12.88
2022-07-26T22:23:12.631Z,13.40
2022-07-26T22:25:39.949Z,12.77
2022-07-26T22:30:34.247Z,12.95
2022-07-26T22:33:02.766Z,13.32
2022-07-26T22:35:34.984Z,12.82
2022-07-26T22:38:10.912Z,12.57
2022-07-26T22:40:39.065Z,13.05
2022-07-26T22:43:06.390Z,12.45
2022-07-26T22:48:02.803Z,13.88
2022-07-26T22:50:30.108Z,13.57
2022-07-26T22:55:23.495Z,13.05
2022-07-26T22:57:50.443Z,12.27
2022-07-26T23:00:18.601Z,12.85
2022-07-26T23:02:45.658Z,13.05
2022-07-26T23:05:14.677Z,13.63
2022-07-26T23:07:41.722Z,14.23
2022-07-26T23:10:12.391Z,12.82
2022-07-26T23:12:40.286Z,15.55
2022-07-26T23:15:09.869Z,13.35
2022-07-26T23:17:36.843Z,12.70
2022-07-26T23:20:07.027Z,14.82
2022-07-26T23:22:34.120Z,13.20
2022-07-26T23:25:00.793Z,14.48
2022-07-26T23:27:27.577Z,13.65
2022-07-26T23:29:54.238Z,13.45
2022-07-26T23:32:20.858Z,16.65
2022-07-26T23:34:47.462Z,15.00
2022-07-26T23:37:14.394Z,13.82
2022-07-26T23:39:41.035Z,15.30
2022-07-26T23:42:07.709Z,13.80
2022-07-26T23:44:34.441Z,13.82
2022-07-26T23:47:01.259Z,14.23
2022-07-26T23:49:27.975Z,13.70
2022-07-26T23:51:54.633Z,14.30
2022-07-26T23:54:21.336Z,13.82
2022-07-26T23:56:47.971Z,14.60
2022-07-26T23:59:15.171Z,13.93
